createdAt,value
2019-04-30T00:00:15.765Z,44.80
2019-04-30T00:01:18.458Z,40.70
2019-04-30T00:02:15.893Z,44.50
2019-04-30T00:03:18.018Z,46.00
2019-04-30T00:04:15.737Z,45.50
2019-04-30T00:05:17.909Z,39.50
2019-04-30T00:06:15.698Z,42.30
2019-04-30T00:07:17.542Z,41.70
2019-04-30T00:08:16.069Z,41.50
2019-04-30T00:09:19.070Z,43.60
2019-04-30T00:10:15.462Z,41.00
2019-04-30T00:11:17.960Z,39.30
2019-04-30T00:12:15.729Z,44.90
2019-04-30T00:13:17.843Z,42.30
2019-04-30T00:14:15.259Z,42.30
2019-04-30T00:15:16.216Z,42.20
2019-04-30T00:16:15.347Z,40.60
2019-04-30T00:17:16.024Z,40.50
2019-04-30T00:18:15.546Z,41.20
2019-04-30T00:19:15.766Z,42.50
2019-04-30T00:20:15.085Z,40.30
2019-04-30T00:21:18.445Z,39.40
2019-04-30T00:22:15.816Z,39.70
2019-04-30T00:23:17.736Z,39.40
2019-04-30T00:24:15.888Z,39.20
2019-04-30T00:25:15.305Z,38.20
2019-04-30T00:26:17.009Z,40.70
2019-04-30T00:27:15.127Z,37.80
2019-04-30T00:28:15.557Z,42.60
2019-04-30T00:29:19.065Z,42.30
2019-04-30T00:30:15.471Z,37.70
2019-04-30T00:31:17.318Z,44.20
2019-04-30T00:32:15.989Z,37.60
2019-04-30T00:33:15.269Z,40.90
2019-04-30T00:34:15.132Z,39.20
2019-04-30T00:35:16.162Z,39.60
2019-04-30T00:36:14.839Z,41.00
2019-04-30T00:37:18.673Z,42.30
2019-04-30T00:38:15.121Z,40.10
2019-04-30T00:39:16.225Z,38.60
2019-04-30T00:40:15.369Z,47.10
2019-04-30T00:41:15.525Z,42.50
2019-04-30T00:42:18.649Z,42.00
2019-04-30T00:43:15.552Z,41.80
2019-04-30T00:44:15.123Z,38.20
2019-04-30T00:45:15.466Z,41.80
2019-04-30T00:46:17.320Z,39.40
2019-04-30T00:47:15.428Z,33.90
2019-04-30T00:48:19.751Z,31.80
2019-04-30T00:49:18.340Z,33.00
2019-04-30T00:50:14.985Z,37.10
2019-04-30T00:51:21.177Z,34.80
2019-04-30T00:52:15.398Z,31.20
2019-04-30T00:53:14.847Z,30.70
2019-04-30T00:54:15.247Z,35.50
2019-04-30T00:55:15.057Z,31.30
2019-04-30T00:56:15.810Z,31.60
2019-04-30T00:57:15.184Z,34.90
2019-04-30T00:58:17.670Z,33.10
2019-04-30T00:59:15.117Z,29.40
2019-04-30T01:00:19.643Z,30.20
2019-04-30T01:01:15.270Z,30.90
2019-04-30T01:02:19.936Z,29.50
2019-04-30T01:03:15.386Z,30.30
2019-04-30T01:04:15.077Z,33.00
2019-04-30T01:05:15.655Z,30.30
2019-04-30T01:06:17.228Z,26.50
2019-04-30T01:07:15.566Z,30.70
2019-04-30T01:08:15.390Z,29.20
2019-04-30T01:09:15.553Z,27.60
2019-04-30T01:10:15.180Z,24.50
2019-04-30T01:11:15.432Z,25.40
2019-04-30T01:12:19.162Z,25.30
2019-04-30T01:13:14.055Z,25.80
2019-04-30T01:14:14.050Z,26.90
2019-04-30T01:15:14.669Z,26.80
2019-04-30T01:16:14.033Z,31.00
2019-04-30T01:17:14.033Z,26.00
2019-04-30T01:18:14.022Z,24.60
2019-04-30T01:19:28.889Z,25.30
2019-04-30T01:20:14.004Z,23.00
2019-04-30T01:21:13.998Z,24.00
2019-04-30T01:22:13.987Z,22.60
2019-04-30T01:23:13.984Z,26.30
2019-04-30T01:24:13.981Z,21.80
2019-04-30T01:25:13.970Z,27.60
2019-04-30T01:26:13.974Z,25.00
2019-04-30T01:27:13.955Z,27.00
2019-04-30T01:28:16.394Z,25.80
2019-04-30T01:29:13.941Z,23.80
2019-04-30T01:30:21.088Z,23.50
2019-04-30T01:31:13.925Z,26.90
2019-04-30T01:32:17.676Z,26.00
2019-04-30T01:33:13.913Z,22.70
2019-04-30T01:34:14.196Z,20.80
2019-04-30T01:35:13.898Z,19.90
2019-04-30T01:36:13.891Z,21.20
2019-04-30T01:37:13.882Z,19.80
2019-04-30T01:38:13.871Z,19.70
2019-04-30T01:39:13.871Z,20.40
2019-04-30T01:40:14.044Z,18.90
2019-04-30T01:41:13.854Z,21.60
2019-04-30T01:42:13.847Z,17.60
2019-04-30T01:43:13.837Z,20.00
2019-04-30T01:44:13.830Z,17.50
2019-04-30T01:45:13.824Z,18.50
2019-04-30T01:46:14.049Z,18.40
2019-04-30T01:47:13.812Z,18.90
2019-04-30T01:48:13.801Z,19.50
2019-04-30T01:49:13.807Z,23.60
2019-04-30T01:50:13.789Z,21.00
2019-04-30T01:51:20.317Z,19.50
2019-04-30T01:52:13.772Z,17.40
2019-04-30T01:53:13.762Z,17.60
2019-04-30T01:54:17.923Z,20.40
2019-04-30T01:55:13.748Z,17.70
2019-04-30T01:56:13.739Z,21.60
2019-04-30T01:57:13.730Z,17.30
2019-04-30T01:58:13.725Z,18.20
2019-04-30T01:59:13.719Z,19.50
2019-04-30T02:00:13.717Z,16.80
2019-04-30T02:01:13.709Z,22.80
2019-04-30T02:02:13.696Z,15.20
2019-04-30T02:03:13.689Z,17.40
2019-04-30T02:04:13.687Z,16.40
2019-04-30T02:05:13.673Z,16.70
2019-04-30T02:06:13.665Z,17.80
2019-04-30T02:07:13.659Z,17.80
2019-04-30T02:08:13.650Z,16.00
2019-04-30T02:09:13.644Z,15.60
2019-04-30T02:10:13.636Z,13.80
2019-04-30T02:11:13.628Z,16.60
2019-04-30T02:12:13.624Z,13.60
2019-04-30T02:13:13.611Z,13.30
2019-04-30T02:14:13.606Z,17.90
2019-04-30T02:15:13.597Z,14.60
2019-04-30T02:16:13.584Z,13.20
2019-04-30T02:17:13.582Z,16.50
2019-04-30T02:18:13.577Z,15.40
2019-04-30T02:19:13.569Z,14.90
2019-04-30T02:20:13.556Z,17.30
2019-04-30T02:21:13.558Z,16.70
2019-04-30T02:22:13.544Z,17.30
2019-04-30T02:23:13.534Z,18.40
2019-04-30T02:24:13.528Z,13.50
2019-04-30T02:25:13.522Z,14.00
2019-04-30T02:26:13.509Z,13.40
2019-04-30T02:27:13.505Z,17.00
2019-04-30T02:28:13.498Z,17.00
2019-04-30T02:29:13.489Z,22.90
2019-04-30T02:30:13.489Z,14.90
2019-04-30T02:31:13.475Z,13.70
2019-04-30T02:32:13.469Z,18.20
2019-04-30T02:33:13.452Z,17.40
2019-04-30T02:34:13.463Z,16.60
2019-04-30T02:35:13.442Z,15.80
2019-04-30T02:36:13.436Z,13.90
2019-04-30T02:37:13.431Z,16.30
2019-04-30T02:38:13.421Z,16.70
2019-04-30T02:39:13.418Z,13.40
2019-04-30T02:40:13.402Z,17.20
2019-04-30T02:41:13.395Z,12.40
2019-04-30T02:42:13.578Z,15.40
2019-04-30T02:43:13.378Z,14.60
2019-04-30T02:44:13.369Z,16.00
2019-04-30T02:45:13.362Z,16.10
2019-04-30T02:46:13.363Z,14.40
2019-04-30T02:47:13.351Z,13.80
2019-04-30T02:48:13.342Z,15.50
2019-04-30T02:49:13.334Z,15.30
2019-04-30T02:50:18.402Z,19.10
2019-04-30T02:51:13.315Z,16.30
2019-04-30T02:52:13.307Z,12.30
2019-04-30T02:53:13.302Z,17.60
2019-04-30T02:54:13.292Z,13.30
2019-04-30T02:55:13.284Z,15.40
2019-04-30T02:56:13.275Z,19.30
2019-04-30T02:57:13.266Z,16.50
2019-04-30T02:58:13.269Z,16.40
2019-04-30T02:59:13.248Z,15.30
2019-04-30T03:00:13.242Z,17.10
2019-04-30T03:01:13.232Z,13.00
2019-04-30T03:02:13.227Z,17.80
2019-04-30T03:03:13.220Z,13.10
2019-04-30T03:04:13.214Z,12.80
2019-04-30T03:05:13.990Z,15.40
2019-04-30T03:06:13.195Z,17.50
2019-04-30T03:07:13.192Z,16.10
2019-04-30T03:08:13.173Z,18.00
2019-04-30T03:09:13.170Z,15.40
2019-04-30T03:10:13.159Z,13.80
2019-04-30T03:11:13.148Z,11.60
2019-04-30T03:12:13.146Z,15.20
2019-04-30T03:13:13.135Z,18.80
2019-04-30T03:14:13.127Z,15.10
2019-04-30T03:15:13.116Z,18.40
2019-04-30T03:16:13.115Z,15.30
2019-04-30T03:17:13.099Z,16.90
2019-04-30T03:18:34.096Z,17.40
2019-04-30T03:19:13.085Z,18.20
2019-04-30T03:20:27.820Z,14.70
2019-04-30T03:21:13.066Z,15.60
2019-04-30T03:22:13.058Z,15.10
2019-04-30T03:23:13.059Z,14.20
2019-04-30T03:24:13.042Z,16.00
2019-04-30T03:25:13.036Z,13.50
2019-04-30T03:26:13.157Z,14.60
2019-04-30T03:27:13.017Z,17.20
2019-04-30T03:28:13.005Z,16.00
2019-04-30T03:29:13.007Z,18.30
2019-04-30T03:30:12.997Z,14.20
2019-04-30T03:31:12.986Z,16.20
2019-04-30T03:32:14.292Z,15.50
2019-04-30T03:33:13.549Z,16.20
2019-04-30T03:34:24.400Z,13.40
2019-04-30T03:35:13.370Z,18.00
2019-04-30T03:36:13.139Z,14.30
2019-04-30T03:37:12.929Z,14.60
2019-04-30T03:38:12.922Z,15.90
2019-04-30T03:39:12.909Z,18.60
2019-04-30T03:40:13.399Z,14.00
2019-04-30T03:41:12.892Z,15.20
2019-04-30T03:42:12.883Z,20.00
2019-04-30T03:43:12.882Z,16.30
2019-04-30T03:44:21.411Z,13.00
2019-04-30T03:45:12.899Z,14.70
2019-04-30T03:46:12.857Z,16.10
2019-04-30T03:47:12.838Z,13.80
2019-04-30T03:48:12.831Z,16.40
2019-04-30T03:49:13.486Z,16.50
2019-04-30T03:50:12.814Z,15.70
2019-04-30T03:51:12.805Z,17.60
2019-04-30T03:52:13.479Z,11.60
2019-04-30T03:53:12.791Z,17.00
2019-04-30T03:54:12.780Z,17.90
2019-04-30T03:55:12.772Z,16.60
2019-04-30T03:56:12.771Z,18.40
2019-04-30T03:57:12.756Z,19.00
2019-04-30T03:58:12.749Z,16.40
2019-04-30T03:59:12.734Z,17.50
2019-04-30T04:00:12.728Z,14.90
2019-04-30T04:01:12.718Z,16.70
2019-04-30T04:02:13.106Z,14.00
2019-04-30T04:03:12.705Z,13.40
2019-04-30T04:04:12.688Z,19.50
2019-04-30T04:05:12.681Z,13.00
2019-04-30T04:06:12.673Z,17.00
2019-04-30T04:07:12.688Z,16.70
2019-04-30T04:08:12.661Z,17.10
2019-04-30T04:09:12.650Z,15.60
2019-04-30T04:10:12.639Z,17.10
2019-04-30T04:11:12.646Z,17.00
2019-04-30T04:12:12.619Z,13.80
2019-04-30T04:13:12.609Z,19.00
2019-04-30T04:14:12.602Z,15.00
2019-04-30T04:15:12.592Z,14.70
2019-04-30T04:16:12.590Z,15.70
2019-04-30T04:17:12.585Z,13.60
2019-04-30T04:18:12.570Z,14.60
2019-04-30T04:19:12.559Z,14.00
2019-04-30T04:20:12.549Z,17.60
2019-04-30T04:21:16.730Z,15.60
2019-04-30T04:22:12.545Z,14.50
2019-04-30T04:23:12.519Z,15.30
2019-04-30T04:24:12.514Z,15.70
2019-04-30T04:25:13.223Z,17.50
2019-04-30T04:26:12.494Z,14.80
2019-04-30T04:27:12.487Z,13.10
2019-04-30T04:28:12.480Z,16.30
2019-04-30T04:29:12.637Z,17.10
2019-04-30T04:30:12.466Z,15.30
2019-04-30T04:31:12.454Z,14.50
2019-04-30T04:32:12.445Z,12.00
2019-04-30T04:33:12.434Z,14.50
2019-04-30T04:34:12.426Z,15.30
2019-04-30T04:35:12.994Z,15.80
2019-04-30T04:36:12.407Z,20.00
2019-04-30T04:37:12.402Z,12.20
2019-04-30T04:38:12.846Z,15.00
2019-04-30T04:39:12.378Z,14.10
2019-04-30T04:40:12.373Z,14.90
2019-04-30T04:41:12.363Z,17.70
2019-04-30T04:42:12.354Z,26.30
2019-04-30T04:43:12.358Z,14.20
2019-04-30T04:44:13.040Z,15.90
2019-04-30T04:45:12.331Z,16.40
2019-04-30T04:46:12.319Z,12.90
2019-04-30T04:47:15.873Z,14.70
2019-04-30T04:48:12.311Z,21.10
2019-04-30T04:49:12.296Z,15.60
2019-04-30T04:50:12.297Z,13.10
2019-04-30T04:51:27.604Z,12.80
2019-04-30T04:52:12.273Z,19.50
2019-04-30T04:53:12.263Z,11.10
2019-04-30T04:54:12.252Z,9.80
2019-04-30T04:55:12.243Z,15.10
2019-04-30T04:56:12.241Z,12.50
2019-04-30T04:57:17.965Z,9.70
2019-04-30T04:58:12.952Z,10.80
2019-04-30T04:59:12.218Z,12.60
2019-04-30T05:00:12.206Z,8.80
2019-04-30T05:01:12.196Z,8.90
2019-04-30T05:02:12.191Z,9.60
2019-04-30T05:03:12.221Z,9.70
2019-04-30T05:04:12.176Z,9.20
2019-04-30T05:05:12.178Z,11.60
2019-04-30T05:06:12.162Z,9.40
2019-04-30T05:07:12.149Z,9.50
2019-04-30T05:08:12.145Z,9.90
2019-04-30T05:09:12.136Z,9.60
2019-04-30T05:10:12.125Z,7.00
2019-04-30T05:11:12.128Z,12.00
2019-04-30T05:12:12.118Z,13.70
2019-04-30T05:13:12.103Z,11.20
2019-04-30T05:14:12.096Z,15.50
2019-04-30T05:15:12.087Z,11.10
2019-04-30T05:16:12.089Z,11.00
2019-04-30T05:17:12.077Z,9.50
2019-04-30T05:18:12.071Z,13.30
2019-04-30T05:19:12.055Z,11.20
2019-04-30T05:20:12.056Z,9.20
2019-04-30T05:21:12.041Z,9.00
2019-04-30T05:22:12.034Z,7.80
2019-04-30T05:23:12.032Z,11.80
2019-04-30T05:24:12.018Z,8.70
2019-04-30T05:25:12.012Z,10.20
2019-04-30T05:26:12.006Z,9.90
2019-04-30T05:27:11.997Z,10.70
2019-04-30T05:28:11.990Z,7.70
2019-04-30T05:29:11.980Z,10.10
2019-04-30T05:30:12.309Z,9.10
2019-04-30T05:31:11.967Z,7.60
2019-04-30T05:32:11.964Z,7.30
2019-04-30T05:33:11.963Z,9.80
2019-04-30T05:34:11.946Z,11.40
2019-04-30T05:35:11.937Z,10.50
2019-04-30T05:36:11.934Z,10.00
2019-04-30T05:37:11.927Z,7.50
2019-04-30T05:38:11.922Z,10.80
2019-04-30T05:39:11.914Z,8.90
2019-04-30T05:40:11.908Z,8.70
2019-04-30T05:41:11.913Z,10.80
2019-04-30T05:42:11.900Z,8.40
2019-04-30T05:43:11.886Z,11.30
2019-04-30T05:44:11.882Z,8.10
2019-04-30T05:45:11.875Z,8.40
2019-04-30T05:46:14.039Z,8.80
2019-04-30T05:47:11.865Z,9.50
2019-04-30T05:48:11.857Z,8.60
2019-04-30T05:49:11.855Z,10.20
2019-04-30T05:50:11.863Z,9.80
2019-04-30T05:51:11.839Z,8.30
2019-04-30T05:52:11.834Z,9.50
2019-04-30T05:53:11.834Z,9.30
2019-04-30T05:54:11.820Z,14.30
2019-04-30T05:55:11.817Z,9.60
2019-04-30T05:56:11.808Z,8.10
2019-04-30T05:57:11.804Z,8.30
2019-04-30T05:58:11.801Z,7.10
2019-04-30T05:59:11.793Z,9.50
2019-04-30T06:00:11.790Z,10.20
2019-04-30T06:01:11.778Z,10.60
2019-04-30T06:02:11.775Z,10.20
2019-04-30T06:03:11.767Z,10.80
2019-04-30T06:04:11.762Z,7.80
2019-04-30T06:05:11.756Z,7.50
2019-04-30T06:06:11.752Z,11.10
2019-04-30T06:07:11.741Z,9.40
2019-04-30T06:08:11.747Z,6.20
2019-04-30T06:09:14.897Z,7.20
2019-04-30T06:10:11.723Z,7.10
2019-04-30T06:11:11.716Z,12.10
2019-04-30T06:12:11.724Z,7.30
2019-04-30T06:13:11.902Z,8.60
2019-04-30T06:14:11.772Z,12.10
2019-04-30T06:15:12.012Z,8.60
2019-04-30T06:16:11.705Z,8.20
2019-04-30T06:17:11.701Z,11.00
2019-04-30T06:18:14.063Z,8.40
2019-04-30T06:19:11.664Z,7.60
2019-04-30T06:20:18.466Z,8.90
2019-04-30T06:21:11.652Z,7.40
2019-04-30T06:22:11.652Z,7.80
2019-04-30T06:23:11.640Z,6.90
2019-04-30T06:24:11.633Z,6.90
2019-04-30T06:25:11.650Z,11.40
2019-04-30T06:26:13.224Z,6.90
2019-04-30T06:27:11.614Z,15.00
2019-04-30T06:28:11.610Z,6.70
2019-04-30T06:29:11.605Z,9.30
2019-04-30T06:30:12.098Z,14.80
2019-04-30T06:31:11.595Z,8.30
2019-04-30T06:32:11.594Z,21.50
2019-04-30T06:33:11.909Z,10.70
2019-04-30T06:34:11.574Z,23.50
2019-04-30T06:35:11.567Z,13.30
2019-04-30T06:36:11.557Z,9.30
2019-04-30T06:37:11.550Z,10.00
2019-04-30T06:38:11.544Z,5.80
2019-04-30T06:39:11.538Z,57.60
2019-04-30T06:40:11.720Z,8.90
2019-04-30T06:41:11.540Z,10.90
2019-04-30T06:42:13.045Z,9.30
2019-04-30T06:43:11.512Z,6.00
2019-04-30T06:44:11.529Z,7.80
2019-04-30T06:45:11.500Z,7.20
2019-04-30T06:46:11.492Z,11.60
2019-04-30T06:47:11.486Z,10.20
2019-04-30T06:48:11.477Z,16.90
2019-04-30T06:49:11.469Z,7.10
2019-04-30T06:50:11.494Z,8.40
2019-04-30T06:51:11.462Z,7.70
2019-04-30T06:52:20.005Z,9.90
2019-04-30T06:53:11.438Z,12.30
2019-04-30T06:54:11.456Z,11.30
2019-04-30T06:55:11.428Z,5.40
2019-04-30T06:56:11.423Z,8.80
2019-04-30T06:57:12.113Z,6.90
2019-04-30T06:58:15.339Z,10.50
2019-04-30T06:59:11.396Z,7.60
2019-04-30T07:00:11.390Z,4.80
2019-04-30T07:01:11.405Z,28.90
2019-04-30T07:02:11.406Z,8.30
2019-04-30T07:03:11.372Z,7.80
2019-04-30T07:04:11.358Z,9.40
2019-04-30T07:05:12.024Z,18.60
2019-04-30T07:06:11.347Z,7.90
2019-04-30T07:07:14.249Z,8.10
2019-04-30T07:08:12.065Z,9.60
2019-04-30T07:09:11.319Z,6.40
2019-04-30T07:10:16.931Z,5.40
2019-04-30T07:11:11.433Z,5.90
2019-04-30T07:12:22.935Z,12.40
2019-04-30T07:13:11.296Z,6.40
2019-04-30T07:14:11.282Z,5.80
2019-04-30T07:15:13.587Z,7.60
2019-04-30T07:16:11.269Z,10.40
2019-04-30T07:17:11.264Z,9.60
2019-04-30T07:18:11.251Z,7.30
2019-04-30T07:19:11.244Z,8.00
2019-04-30T07:20:11.246Z,5.90
2019-04-30T07:21:11.242Z,8.30
2019-04-30T07:22:11.224Z,10.60
2019-04-30T07:23:11.221Z,5.40
2019-04-30T07:24:11.208Z,8.10
2019-04-30T07:25:11.228Z,8.50
2019-04-30T07:26:13.873Z,9.40
2019-04-30T07:27:11.181Z,7.90
2019-04-30T07:28:11.176Z,5.20
2019-04-30T07:29:11.171Z,6.50
2019-04-30T07:30:11.167Z,8.40
2019-04-30T07:31:14.315Z,7.30
2019-04-30T07:32:11.145Z,8.40
2019-04-30T07:33:11.137Z,7.00
2019-04-30T07:34:11.133Z,6.50
2019-04-30T07:35:11.121Z,8.80
2019-04-30T07:36:11.114Z,8.20
2019-04-30T07:37:17.213Z,8.00
2019-04-30T07:38:11.100Z,7.00
2019-04-30T07:39:11.091Z,5.90
2019-04-30T07:40:11.084Z,8.20
2019-04-30T07:41:11.077Z,9.60
2019-04-30T07:42:11.075Z,19.80
2019-04-30T07:43:11.061Z,7.70
2019-04-30T07:44:29.296Z,5.70
2019-04-30T07:45:11.077Z,7.70
2019-04-30T07:46:11.042Z,6.50
2019-04-30T07:47:11.029Z,9.00
2019-04-30T07:48:11.022Z,7.10
2019-04-30T07:49:11.013Z,7.40
2019-04-30T07:50:11.249Z,6.40
2019-04-30T07:51:11.552Z,27.70
2019-04-30T07:52:12.069Z,7.50
2019-04-30T07:53:12.048Z,11.50
2019-04-30T07:54:11.182Z,5.60
2019-04-30T07:55:11.026Z,15.60
2019-04-30T07:56:24.432Z,7.50
2019-04-30T07:57:11.476Z,12.40
2019-04-30T07:58:10.960Z,6.70
2019-04-30T07:59:11.235Z,26.30
2019-04-30T08:00:11.030Z,11.20
2019-04-30T08:01:10.996Z,6.00
2019-04-30T08:02:14.670Z,10.40
2019-04-30T08:03:11.296Z,6.10
2019-04-30T08:04:10.993Z,5.40
2019-04-30T08:05:10.899Z,8.00
2019-04-30T08:06:10.977Z,11.60
2019-04-30T08:07:10.994Z,6.00
2019-04-30T08:08:21.097Z,6.30
2019-04-30T08:09:10.947Z,12.50
2019-04-30T08:10:10.856Z,17.00
2019-04-30T08:11:23.122Z,11.30
2019-04-30T08:12:11.903Z,6.80
2019-04-30T08:13:14.858Z,6.80
2019-04-30T08:14:10.895Z,7.70
2019-04-30T08:15:10.830Z,6.50
2019-04-30T08:16:10.816Z,9.70
2019-04-30T08:17:10.975Z,11.30
2019-04-30T08:18:10.862Z,6.10
2019-04-30T08:19:10.915Z,6.30
2019-04-30T08:20:10.871Z,9.00
2019-04-30T08:21:10.779Z,7.00
2019-04-30T08:22:10.802Z,9.10
2019-04-30T08:23:20.287Z,10.10
2019-04-30T08:24:10.751Z,8.30
2019-04-30T08:25:10.792Z,6.40
2019-04-30T08:26:10.741Z,7.60
2019-04-30T08:27:10.751Z,7.60
2019-04-30T08:28:10.724Z,5.80
2019-04-30T08:29:10.722Z,6.80
2019-04-30T08:30:21.384Z,7.00
2019-04-30T08:31:10.709Z,7.20
2019-04-30T08:32:10.697Z,9.10
2019-04-30T08:33:10.696Z,9.10
2019-04-30T08:34:11.084Z,6.90
2019-04-30T08:35:10.675Z,6.10
2019-04-30T08:36:10.670Z,5.80
2019-04-30T08:37:17.020Z,10.30
2019-04-30T08:38:10.910Z,6.20
2019-04-30T08:39:10.647Z,4.90
2019-04-30T08:40:10.644Z,7.40
2019-04-30T08:41:10.639Z,8.30
2019-04-30T08:42:10.634Z,8.70
2019-04-30T08:43:10.631Z,5.70
2019-04-30T08:44:10.619Z,7.70
2019-04-30T08:45:10.610Z,6.00
2019-04-30T08:46:11.112Z,8.30
2019-04-30T08:47:10.706Z,6.70
2019-04-30T08:48:10.845Z,8.10
2019-04-30T08:49:12.207Z,10.70
2019-04-30T08:50:10.937Z,11.30
2019-04-30T08:51:13.358Z,9.50
2019-04-30T08:52:11.134Z,11.80
2019-04-30T08:53:11.261Z,12.40
2019-04-30T08:54:10.565Z,8.90
2019-04-30T08:55:14.150Z,11.90
2019-04-30T08:56:10.695Z,8.50
2019-04-30T08:57:10.529Z,10.90
2019-04-30T08:58:14.919Z,9.60
2019-04-30T08:59:11.196Z,8.20
2019-04-30T09:00:11.808Z,12.20
2019-04-30T09:01:10.575Z,10.80
2019-04-30T09:02:15.799Z,7.90
2019-04-30T09:03:10.505Z,5.90
2019-04-30T09:04:10.595Z,9.80
2019-04-30T09:05:10.616Z,7.20
2019-04-30T09:06:10.673Z,6.40
2019-04-30T09:07:10.560Z,7.10
2019-04-30T09:08:10.556Z,6.90
2019-04-30T09:09:11.046Z,6.90
2019-04-30T09:10:10.505Z,12.80
2019-04-30T09:11:22.439Z,13.90
2019-04-30T09:12:10.508Z,8.40
2019-04-30T09:13:10.495Z,9.20
2019-04-30T09:14:10.502Z,6.30
2019-04-30T09:15:10.497Z,12.50
2019-04-30T09:16:10.517Z,6.20
2019-04-30T09:17:10.499Z,7.20
2019-04-30T09:18:12.578Z,6.60
2019-04-30T09:19:10.520Z,7.50
2019-04-30T09:20:10.503Z,8.70
2019-04-30T09:21:10.504Z,7.30
2019-04-30T09:22:14.961Z,7.50
2019-04-30T09:23:11.275Z,11.20
2019-04-30T09:24:10.511Z,6.50
2019-04-30T09:25:10.518Z,5.70
2019-04-30T09:26:10.514Z,5.60
2019-04-30T09:27:10.855Z,6.60
2019-04-30T09:28:10.593Z,9.40
2019-04-30T09:29:10.923Z,12.70
2019-04-30T09:30:10.536Z,8.20
2019-04-30T09:31:10.515Z,6.50
2019-04-30T09:32:10.864Z,5.20
2019-04-30T09:33:11.174Z,5.70
2019-04-30T09:34:17.572Z,5.60
2019-04-30T09:35:10.543Z,6.30
2019-04-30T09:36:10.785Z,6.20
2019-04-30T09:37:10.507Z,7.40
2019-04-30T09:38:10.506Z,5.30
2019-04-30T09:39:10.504Z,6.50
2019-04-30T09:40:17.932Z,5.20
2019-04-30T09:41:10.505Z,4.20
2019-04-30T09:42:10.497Z,5.20
2019-04-30T09:43:10.496Z,5.20
2019-04-30T09:44:10.528Z,7.00
2019-04-30T09:45:10.496Z,5.60
2019-04-30T09:46:19.217Z,7.20
2019-04-30T09:47:10.507Z,6.40
2019-04-30T09:48:10.485Z,5.80
2019-04-30T09:49:10.520Z,8.70
2019-04-30T09:50:10.484Z,5.00
2019-04-30T09:51:11.251Z,5.90
2019-04-30T09:52:10.975Z,4.00
2019-04-30T09:53:10.812Z,3.80
2019-04-30T09:54:12.650Z,3.00
2019-04-30T09:55:10.553Z,4.10
2019-04-30T09:56:10.473Z,5.40
2019-04-30T09:57:11.449Z,5.00
2019-04-30T09:58:16.941Z,4.30
2019-04-30T09:59:10.449Z,3.80
2019-04-30T10:00:10.443Z,5.00
2019-04-30T10:01:10.443Z,7.70
2019-04-30T10:02:10.456Z,3.20
2019-04-30T10:03:11.268Z,6.20
2019-04-30T10:04:11.185Z,6.80
2019-04-30T10:05:11.248Z,4.10
2019-04-30T10:06:10.439Z,5.30
2019-04-30T10:07:10.418Z,5.70
2019-04-30T10:08:10.417Z,2.70
2019-04-30T10:09:10.419Z,8.70
2019-04-30T10:10:11.424Z,9.60
2019-04-30T10:11:10.400Z,2.70
2019-04-30T10:12:10.396Z,4.30
2019-04-30T10:13:10.405Z,9.40
2019-04-30T10:14:10.395Z,4.60
2019-04-30T10:15:10.423Z,6.50
2019-04-30T10:16:10.384Z,3.50
2019-04-30T10:17:10.460Z,34.70
2019-04-30T10:18:10.399Z,12.00
2019-04-30T10:19:10.387Z,10.10
2019-04-30T10:20:10.378Z,3.80
2019-04-30T10:21:10.362Z,6.40
2019-04-30T10:22:10.362Z,5.80
2019-04-30T10:23:10.362Z,4.50
2019-04-30T10:24:15.253Z,2.90
2019-04-30T10:25:10.378Z,3.50
2019-04-30T10:26:10.346Z,7.00
2019-04-30T10:27:13.283Z,9.70
2019-04-30T10:28:10.397Z,13.80
2019-04-30T10:29:10.335Z,4.60
2019-04-30T10:30:10.327Z,4.40
2019-04-30T10:31:10.353Z,6.70
2019-04-30T10:32:10.331Z,6.30
2019-04-30T10:33:10.318Z,4.60
2019-04-30T10:34:10.374Z,5.40
2019-04-30T10:35:10.315Z,3.80
2019-04-30T10:36:10.323Z,4.00
2019-04-30T10:37:10.309Z,6.30
2019-04-30T10:38:10.308Z,3.90
2019-04-30T10:39:10.317Z,3.20
2019-04-30T10:40:10.528Z,4.90
2019-04-30T10:41:10.322Z,4.00
2019-04-30T10:42:10.349Z,2.60
2019-04-30T10:43:10.370Z,3.40
2019-04-30T10:44:10.504Z,4.20
2019-04-30T10:45:10.346Z,3.00
2019-04-30T10:46:10.370Z,5.20
2019-04-30T10:47:10.416Z,4.00
2019-04-30T10:48:10.324Z,6.50
2019-04-30T10:49:10.361Z,5.00
2019-04-30T10:50:10.346Z,4.80
2019-04-30T10:51:11.269Z,7.40
2019-04-30T10:52:10.785Z,5.40
2019-04-30T10:53:12.404Z,8.10
2019-04-30T10:54:22.780Z,4.60
2019-04-30T10:55:10.383Z,4.10
2019-04-30T10:56:10.483Z,6.30
2019-04-30T10:57:10.508Z,8.80
2019-04-30T10:58:10.372Z,4.10
2019-04-30T10:59:10.377Z,4.30
2019-04-30T11:00:10.382Z,2.60
2019-04-30T11:01:10.396Z,7.20
2019-04-30T11:02:10.398Z,3.20
2019-04-30T11:03:19.237Z,5.10
2019-04-30T11:04:10.414Z,3.50
2019-04-30T11:05:10.413Z,2.90
2019-04-30T11:06:10.419Z,6.20
2019-04-30T11:07:10.472Z,5.40
2019-04-30T11:08:10.445Z,4.00
2019-04-30T11:09:10.437Z,5.00
2019-04-30T11:10:10.490Z,4.50
2019-04-30T11:11:10.489Z,5.70
2019-04-30T11:12:10.527Z,3.80
2019-04-30T11:13:10.512Z,5.40
2019-04-30T11:14:10.851Z,3.90
2019-04-30T11:15:10.510Z,5.90
2019-04-30T11:16:14.660Z,7.60
2019-04-30T11:17:10.797Z,3.60
2019-04-30T11:18:10.695Z,6.50
2019-04-30T11:19:10.653Z,7.10
2019-04-30T11:20:10.803Z,4.70
2019-04-30T11:21:10.748Z,4.40
2019-04-30T11:22:11.224Z,5.30
2019-04-30T11:23:20.989Z,5.00
2019-04-30T11:25:31.240Z,5.40
2019-04-30T11:26:09.186Z,7.30
2019-04-30T11:27:11.230Z,5.20
2019-04-30T11:28:09.317Z,9.10
2019-04-30T11:29:08.696Z,6.20
2019-04-30T11:30:20.330Z,4.80
2019-04-30T11:31:09.569Z,12.00
2019-04-30T11:32:08.937Z,5.70
2019-04-30T11:33:09.429Z,4.30
2019-04-30T11:34:09.290Z,5.60
2019-04-30T11:35:08.712Z,8.30
2019-04-30T11:36:09.641Z,8.90
2019-04-30T11:37:08.945Z,5.40
2019-04-30T11:38:08.739Z,5.10
2019-04-30T11:39:08.706Z,5.30
2019-04-30T11:40:09.421Z,32.50
2019-04-30T11:41:08.883Z,9.40
2019-04-30T11:42:08.690Z,5.50
2019-04-30T11:43:08.690Z,6.40
2019-04-30T11:44:09.294Z,10.40
2019-04-30T11:45:08.976Z,6.80
2019-04-30T11:46:08.734Z,4.90
2019-04-30T11:47:09.518Z,6.90
2019-04-30T11:48:09.088Z,5.80
2019-04-30T11:49:09.672Z,7.10
2019-04-30T11:50:08.733Z,3.70
2019-04-30T11:51:09.485Z,7.10
2019-04-30T11:52:08.667Z,8.30
2019-04-30T11:53:24.108Z,25.90
2019-04-30T11:54:09.022Z,4.40
2019-04-30T11:55:09.654Z,5.50
2019-04-30T11:56:08.666Z,8.00
2019-04-30T11:57:08.972Z,5.50
2019-04-30T11:58:21.156Z,5.00
2019-04-30T11:59:08.759Z,10.00
2019-04-30T12:00:10.777Z,6.60
2019-04-30T12:01:09.374Z,10.60
2019-04-30T12:02:08.657Z,7.40
2019-04-30T12:03:09.022Z,7.80
2019-04-30T12:04:09.375Z,5.30
2019-04-30T12:05:08.728Z,6.90
2019-04-30T12:06:08.677Z,10.10
2019-04-30T12:07:08.656Z,6.10
2019-04-30T12:08:09.530Z,13.50
2019-04-30T12:09:09.195Z,9.00
2019-04-30T12:10:09.489Z,5.70
2019-04-30T12:11:09.564Z,9.40
2019-04-30T12:12:09.159Z,9.50
2019-04-30T12:13:09.602Z,6.00
2019-04-30T12:14:08.639Z,6.10
2019-04-30T12:15:09.353Z,4.60
2019-04-30T12:16:08.797Z,6.20
2019-04-30T12:17:08.633Z,5.60
2019-04-30T12:18:08.634Z,4.00
2019-04-30T12:19:09.096Z,8.70
2019-04-30T12:20:08.755Z,5.20
2019-04-30T12:21:08.629Z,6.20
2019-04-30T12:22:08.626Z,6.70
2019-04-30T12:23:11.857Z,4.90
2019-04-30T12:24:08.619Z,16.50
2019-04-30T12:25:10.024Z,10.80
2019-04-30T12:26:09.169Z,4.80
2019-04-30T12:27:08.619Z,5.50
2019-04-30T12:28:09.525Z,5.90
2019-04-30T12:29:08.988Z,5.50
2019-04-30T12:30:08.607Z,5.90
2019-04-30T12:31:09.839Z,7.40
2019-04-30T12:32:08.608Z,7.10
2019-04-30T12:33:09.093Z,5.40
2019-04-30T12:34:08.599Z,7.30
2019-04-30T12:35:08.927Z,10.20
2019-04-30T12:36:09.101Z,9.60
2019-04-30T12:37:10.634Z,6.50
2019-04-30T12:38:09.407Z,5.30
2019-04-30T12:39:08.594Z,6.90
2019-04-30T12:40:09.522Z,5.10
2019-04-30T12:41:08.582Z,8.20
2019-04-30T12:42:08.813Z,9.20
2019-04-30T12:43:08.596Z,4.30
2019-04-30T12:44:08.579Z,6.50
2019-04-30T12:45:09.464Z,5.20
2019-04-30T12:46:08.575Z,6.40
2019-04-30T12:47:09.682Z,6.30
2019-04-30T12:48:08.635Z,8.00
2019-04-30T12:49:10.230Z,7.20
2019-04-30T12:50:09.525Z,6.70
2019-04-30T12:51:08.565Z,6.50
2019-04-30T12:52:08.805Z,6.80
2019-04-30T12:53:09.402Z,6.00
2019-04-30T12:54:08.554Z,6.60
2019-04-30T12:55:15.229Z,5.50
2019-04-30T12:56:08.957Z,6.60
2019-04-30T12:57:10.931Z,32.30
2019-04-30T12:58:09.798Z,6.40
2019-04-30T12:59:08.550Z,11.10
2019-04-30T13:00:09.462Z,10.40
2019-04-30T13:01:09.052Z,7.80
2019-04-30T13:02:09.138Z,5.00
2019-04-30T13:03:08.576Z,6.40
2019-04-30T13:04:09.761Z,8.20
2019-04-30T13:05:08.882Z,9.10
2019-04-30T13:06:11.146Z,7.20